Eddyville, Illinois
Current Conditions -  °F | °C
As of 3:55 AM on Friday 31 Oct 2014 (Local Time) from KHSB Reporting Station
Overcast Overcast  
Wind Chill: 50°   Ceiling: 3900
Heat Index: 50°   Visibility: 10mi
Dew Point: 47°   Wind: 0mph
Humidity: 91%   Direction: NA
Pressure: 30.03"   Gusts: NA
Location:  37.5°N, 88.59°W
Report Text: KHSB 310855Z AUTO 00000KT 10SM OVC039 10/09 A3003 RMK AO2 T01000086
Loading
Personal Weather Stations






























Interactive Weather Map
Tropical Storm Tracking
New forecast layout! Learn more

10-Day Weather Forecast

Advertisements
Track Severe Weather on mobile